Time;durP1;ratioP1;P1;durP2;ratioP2;P2;SDS_P1;SDS_P2;PMS_P1;PMS_P2;Temp;Humidity;BMP_temperature;BMP_pressure;BME280_temperature;BME280_humidity;BME280_pressure;Samples;Min_cycle;Max_cycle;Signal;HPM_P1;HPM_P2
2021/08/07 00:01:52;;;;;;;1.55;1.00;;;;;;;27.71;35.98;95901.00;5037617;28;20028;-80
2021/08/07 00:04:17;;;;;;;1.17;1.08;;;;;;;27.70;35.82;95909.88;5062486;28;20029;-82
2021/08/07 00:06:42;;;;;;;1.77;0.90;;;;;;;27.70;35.94;95910.72;5044668;28;20031;-79
2021/08/07 00:09:08;;;;;;;2.10;1.05;;;;;;;27.71;36.03;95901.00;5064275;28;20043;-81
2021/08/07 00:11:33;;;;;;;2.38;1.00;;;;;;;27.72;36.04;95900.09;5068570;28;20036;-80
2021/08/07 00:13:59;;;;;;;1.92;1.10;;;;;;;27.70;35.90;95888.81;5035676;28;20028;-79
2021/08/07 00:16:24;;;;;;;3.20;0.90;;;;;;;27.72;36.02;95889.56;5036547;28;20039;-80
2021/08/07 00:18:49;;;;;;;4.40;1.15;;;;;;;27.72;36.14;95881.66;5050559;28;20431;-78
2021/08/07 00:21:15;;;;;;;2.00;1.13;;;;;;;27.73;36.00;95885.97;5070269;28;20029;-79
2021/08/07 00:23:40;;;;;;;0.88;0.70;;;;;;;27.73;36.04;95875.44;5068773;28;20449;-79
2021/08/07 00:26:06;;;;;;;2.75;1.30;;;;;;;27.71;36.15;95877.31;5070557;28;20495;-80
2021/08/07 00:28:31;;;;;;;4.47;1.17;;;;;;;27.72;35.82;95884.28;5060544;28;20028;-83
2021/08/07 00:30:56;;;;;;;1.77;0.82;;;;;;;27.73;35.96;95891.22;5070212;28;20071;-78
2021/08/07 00:33:22;;;;;;;3.28;1.27;;;;;;;27.73;35.94;95888.59;5069321;28;20024;-79
2021/08/07 00:35:47;;;;;;;3.22;1.10;;;;;;;27.73;35.91;95881.50;5066934;28;20032;-82
2021/08/07 00:38:13;;;;;;;1.58;1.02;;;;;;;27.75;35.94;95873.50;5050623;28;20308;-80
2021/08/07 00:40:38;;;;;;;1.35;0.90;;;;;;;27.75;36.02;95878.78;5066444;28;20394;-82
2021/08/07 00:43:04;;;;;;;1.45;1.00;;;;;;;27.73;35.85;95875.44;5064715;28;20033;-81
2021/08/07 00:45:29;;;;;;;2.75;1.15;;;;;;;27.74;35.96;95870.06;5071447;28;20085;-82
2021/08/07 00:47:55;;;;;;;3.03;1.00;;;;;;;27.75;35.80;95873.50;5062797;28;20033;-80
2021/08/07 00:50:20;;;;;;;3.75;1.25;;;;;;;27.74;35.97;95877.97;5048634;28;20032;-78
2021/08/07 00:52:46;;;;;;;3.08;0.93;;;;;;;27.74;35.99;95877.97;5048600;28;20426;-82
2021/08/07 00:55:11;;;;;;;4.00;1.33;;;;;;;27.74;35.99;95864.78;5034830;28;20548;-82
2021/08/07 00:57:36;;;;;;;1.48;0.88;;;;;;;27.75;35.99;95868.25;5045496;28;20028;-79
2021/08/07 01:00:03;;;;;;;1.70;0.90;;;;;;;27.75;35.98;95868.25;5066652;28;20036;-80
2021/08/07 01:02:29;;;;;;;3.47;1.00;;;;;;;27.75;35.98;95862.97;5045709;28;20148;-78
2021/08/07 01:05:10;;;;;;;0.93;0.70;;;;;;;27.74;35.95;95861.31;5047971;28;20418;-82
2021/08/07 01:08:11;;;;;;;1.30;0.82;;;;;;;27.76;35.86;95860.22;5051778;28;20187;-80
2021/08/07 01:10:41;;;;;;;3.30;1.07;;;;;;;27.76;35.93;95854.13;5062119;28;20032;-81
2021/08/07 01:13:28;;;;;;;2.30;1.30;;;;;;;27.76;35.81;95851.50;5064118;28;20304;-78
2021/08/07 01:16:01;;;;;;;1.85;0.90;;;;;;;27.77;35.83;95842.66;5047940;28;20256;-78
2021/08/07 01:18:26;;;;;;;2.47;1.10;;;;;;;27.73;35.96;95842.03;5048344;28;20942;-83
2021/08/07 01:20:53;;;;;;;2.70;1.10;;;;;;;27.75;35.93;95839.28;5048117;28;20086;-80
2021/08/07 01:23:21;;;;;;;2.60;0.82;;;;;;;27.76;35.97;95838.31;5047998;28;20025;-79
2021/08/07 01:26:03;;;;;;;1.85;0.90;;;;;;;27.76;35.83;95838.31;5066974;28;20040;-81
2021/08/07 01:28:32;;;;;;;;;;;;;;;27.75;35.79;95853.31;5049754;28;20036;-80
2021/08/07 01:30:58;;;;;;;2.38;0.90;;;;;;;27.76;35.79;95848.84;5064379;28;19934;-79
2021/08/07 01:33:25;;;;;;;1.80;1.08;;;;;;;27.75;35.93;95841.91;5050026;28;20036;-78
2021/08/07 01:35:51;;;;;;;4.20;1.17;;;;;;;27.75;35.89;95836.66;5062446;28;20072;-82
2021/08/07 01:38:16;;;;;;;1.60;0.68;;;;;;;27.74;35.77;95829.72;5049557;28;20101;-80
2021/08/07 01:40:42;;;;;;;2.08;0.90;;;;;;;27.75;35.87;95821.72;5045575;28;20020;-80
2021/08/07 01:43:07;;;;;;;5.30;1.10;;;;;;;27.73;36.04;95815.72;5062373;28;20024;-79
2021/08/07 01:45:32;;;;;;;4.65;1.10;;;;;;;27.73;35.97;95807.81;5063495;28;20025;-83
2021/08/07 01:48:14;;;;;;;1.08;0.77;;;;;;;27.77;35.79;95824.22;5048904;28;20447;-78
2021/08/07 01:51:06;;;;;;;2.20;0.93;;;;;;;27.76;35.82;95833.06;5061066;28;20055;-83
2021/08/07 01:53:32;;;;;;;;;;;;;;;27.76;35.94;95822.53;5044806;28;20031;-80
2021/08/07 01:56:05;;;;;;;2.15;1.08;;;;;;;27.77;35.99;95825.06;5064591;28;19931;-79
2021/08/07 01:58:50;;;;;;;1.48;0.88;;;;;;;27.75;36.03;95837.50;5059510;28;20069;-79
2021/08/07 02:01:16;;;;;;;1.40;0.90;;;;;;;27.74;35.86;95830.56;5048930;28;20093;-79
2021/08/07 02:03:41;;;;;;;2.78;0.90;;;;;;;27.74;36.01;95832.34;5045483;28;20028;-81
2021/08/07 02:06:07;;;;;;;2.00;1.02;;;;;;;27.76;35.89;95835.69;5028128;28;20033;-80
2021/08/07 02:08:36;;;;;;;1.33;0.95;;;;;;;27.75;35.89;95832.25;5045609;28;20039;-80
2021/08/07 02:11:02;;;;;;;1.30;0.93;;;;;;;27.77;35.93;95837.41;5024856;28;20033;-78
2021/08/07 02:13:27;;;;;;;1.33;0.90;;;;;;;27.77;35.92;95837.41;5060725;28;20464;-79
2021/08/07 02:15:53;;;;;;;2.10;1.00;;;;;;;27.78;35.92;95836.44;5044361;28;20020;-81
2021/08/07 02:18:23;;;;;;;1.75;1.02;;;;;;;27.77;35.65;95829.50;5063002;28;20089;-77
2021/08/07 02:20:49;;;;;;;2.35;1.00;;;;;;;27.78;35.95;95825.91;5046758;28;20308;-79
2021/08/07 02:23:15;;;;;;;2.55;1.10;;;;;;;27.78;36.05;95820.63;5031356;28;20458;-79
2021/08/07 02:25:41;;;;;;;3.20;1.30;;;;;;;27.79;36.05;95817.03;5039889;28;20032;-79
2021/08/07 02:28:06;;;;;;;3.15;1.10;;;;;;;27.80;35.93;95812.63;5064194;28;20025;-78
2021/08/07 02:30:32;;;;;;;3.28;1.15;;;;;;;27.78;35.97;95810.97;5061025;28;20456;-79
2021/08/07 02:32:57;;;;;;;1.25;0.77;;;;;;;27.78;36.09;95810.97;5032289;28;20040;-81
2021/08/07 02:35:23;;;;;;;1.85;1.05;;;;;;;27.80;36.02;95812.63;5044041;28;20510;-82
2021/08/07 02:37:48;;;;;;;2.15;1.00;;;;;;;27.78;35.86;95804.84;5059191;28;20249;-78
2021/08/07 02:40:14;;;;;;;1.40;1.08;;;;;;;27.79;36.05;95817.03;5033463;28;20086;-78
2021/08/07 02:42:39;;;;;;;1.95;0.93;;;;;;;27.80;35.91;95808.19;5046030;28;20032;-81
2021/08/07 02:45:05;;;;;;;3.17;1.45;;;;;;;27.79;36.02;95801.25;5059272;28;20025;-81
2021/08/07 02:47:31;;;;;;;1.77;0.98;;;;;;;27.79;35.91;95801.25;5042876;28;20036;-78
2021/08/07 02:49:56;;;;;;;2.10;1.00;;;;;;;27.80;35.84;95789.75;5062370;28;20391;-81
2021/08/07 02:52:21;;;;;;;1.17;0.80;;;;;;;27.78;35.80;95795.16;5040612;28;20036;-81
2021/08/07 02:54:48;;;;;;;0.68;0.60;;;;;;;27.80;35.83;95792.38;5040114;28;20028;-82
2021/08/07 02:57:14;;;;;;;1.40;0.70;;;;;;;27.79;35.79;95785.44;5054498;28;20089;-81
2021/08/07 02:59:39;;;;;;;1.20;0.82;;;;;;;27.80;35.81;95781.84;5061365;28;20017;-80
2021/08/07 03:02:05;;;;;;;1.10;0.80;;;;;;;27.80;36.03;95781.03;5058567;28;20055;-77
2021/08/07 03:04:30;;;;;;;1.58;0.70;;;;;;;27.80;35.91;95775.78;5024016;28;20378;-82
2021/08/07 03:06:55;;;;;;;2.35;1.13;;;;;;;27.80;35.94;95781.84;5021524;28;20565;-78
2021/08/07 03:09:21;;;;;;;1.52;1.00;;;;;;;27.79;35.75;95780.19;5065736;28;20028;-81
2021/08/07 03:11:47;;;;;;;2.85;1.10;;;;;;;27.79;36.04;95782.81;5058001;28;20032;-81
2021/08/07 03:14:12;;;;;;;2.42;0.85;;;;;;;27.80;36.03;95789.75;5057168;28;20028;-83
2021/08/07 03:16:38;;;;;;;1.10;0.70;;;;;;;27.81;35.97;95793.22;5046721;28;20028;-79
2021/08/07 03:19:03;;;;;;;1.60;0.80;;;;;;;27.80;35.84;95787.13;5043912;28;20047;-80
2021/08/07 03:21:29;;;;;;;1.58;1.00;;;;;;;27.82;35.87;95787.00;5058367;28;20360;-79
2021/08/07 03:23:54;;;;;;;4.00;0.88;;;;;;;27.81;36.15;95795.88;5043897;28;20032;-79
2021/08/07 03:26:20;;;;;;;1.48;0.80;;;;;;;27.81;35.81;95798.50;5045095;28;20502;-81
2021/08/07 03:28:46;;;;;;;0.93;0.60;;;;;;;27.82;35.92;95794.91;5050543;28;20396;-78
2021/08/07 03:31:11;;;;;;;1.92;0.90;;;;;;;27.81;35.89;95783.56;5031543;28;20450;-80
2021/08/07 03:33:36;;;;;;;2.00;0.88;;;;;;;27.80;35.94;95784.47;5028973;28;20024;-82
2021/08/07 03:36:02;;;;;;;1.17;0.68;;;;;;;27.81;35.86;95778.28;5059869;28;20032;-80
2021/08/07 03:38:27;;;;;;;1.40;0.77;;;;;;;27.81;35.88;95766.91;5048111;28;20041;-79
2021/08/07 03:40:53;;;;;;;3.72;1.20;;;;;;;27.80;35.80;95766.06;5070420;28;20254;-82
2021/08/07 03:43:19;;;;;;;2.50;1.00;;;;;;;27.78;35.95;95770.63;5063039;28;20316;-80
2021/08/07 03:45:44;;;;;;;2.03;0.93;;;;;;;27.80;36.00;95755.53;5064088;28;20036;-82
2021/08/07 03:48:10;;;;;;;4.03;0.95;;;;;;;27.80;36.08;95760.78;5068464;28;20110;-82
2021/08/07 03:50:36;;;;;;;1.42;0.90;;;;;;;27.80;35.96;95758.16;5048096;28;20055;-78
2021/08/07 03:53:01;;;;;;;1.10;0.98;;;;;;;27.76;36.03;95754.94;5067435;28;20052;-81
2021/08/07 03:55:26;;;;;;;2.58;0.80;;;;;;;27.79;35.94;95769.66;5068635;28;20032;-81
2021/08/07 03:57:58;;;;;;;2.17;1.00;;;;;;;27.79;35.93;95769.66;5065770;28;20028;-82
2021/08/07 04:00:24;;;;;;;;;;;;;;;27.78;36.02;95758.31;5062534;28;20040;-84
2021/08/07 04:02:49;;;;;;;3.25;0.90;;;;;;;27.79;35.98;95753.84;5048078;28;20278;-80
2021/08/07 04:05:15;;;;;;;1.05;0.85;;;;;;;27.79;35.87;95759.13;5050605;28;20120;-81
2021/08/07 04:07:40;;;;;;;2.70;0.85;;;;;;;27.78;36.07;95760.09;5046710;28;20368;-82
2021/08/07 04:10:06;;;;;;;2.40;0.98;;;;;;;27.76;35.90;95754.94;5046723;28;20031;-80
2021/08/07 04:12:32;;;;;;;1.85;0.90;;;;;;;27.78;35.96;95758.31;5037329;28;20056;-79
2021/08/07 04:14:57;;;;;;;1.98;1.00;;;;;;;27.79;35.96;95748.59;5030690;28;20412;-82
2021/08/07 04:17:23;;;;;;;3.17;1.00;;;;;;;27.79;35.98;95759.13;5051740;28;20346;-80
2021/08/07 04:19:48;;;;;;;2.50;1.00;;;;;;;27.76;36.04;95747.03;5063939;28;20169;-79
2021/08/07 04:22:13;;;;;;;4.40;1.23;;;;;;;27.77;35.87;95745.25;5062182;28;20439;-80
2021/08/07 04:24:39;;;;;;;1.50;1.00;;;;;;;27.76;35.96;95747.03;5048392;28;20364;-79
2021/08/07 04:27:04;;;;;;;2.05;0.90;;;;;;;27.77;35.97;95734.72;5066825;28;20020;-82
2021/08/07 04:29:30;;;;;;;1.73;0.85;;;;;;;27.77;36.03;95734.72;5049325;28;20074;-82
2021/08/07 04:31:55;;;;;;;1.38;0.80;;;;;;;27.76;35.88;95722.50;5034329;28;20483;-79
2021/08/07 04:34:20;;;;;;;3.28;0.93;;;;;;;27.77;35.87;95713.66;5063981;28;20479;-85
2021/08/07 04:36:46;;;;;;;2.40;1.00;;;;;;;27.77;35.88;95705.78;5085158;28;20244;-83
2021/08/07 04:39:11;;;;;;;2.15;1.00;;;;;;;27.77;36.05;95714.50;5048565;28;20031;-78
2021/08/07 04:41:38;;;;;;;1.58;0.90;;;;;;;27.77;35.95;95730.28;5068921;28;20028;-79
2021/08/07 04:44:04;;;;;;;2.42;0.85;;;;;;;27.77;35.97;95734.72;5047526;28;20090;-80
2021/08/07 04:46:30;;;;;;;1.75;1.00;;;;;;;27.78;35.96;95736.41;5032947;28;20518;-83
2021/08/07 04:48:55;;;;;;;4.20;1.00;;;;;;;27.77;35.94;95742.63;5047814;28;20028;-78
2021/08/07 04:51:21;;;;;;;2.40;0.90;;;;;;;27.78;36.04;95746.94;5046162;28;20036;-79
2021/08/07 04:53:46;;;;;;;1.10;0.95;;;;;;;27.78;36.06;95752.19;5046233;28;20553;-82
2021/08/07 04:56:11;;;;;;;1.48;0.93;;;;;;;27.78;35.96;95760.09;5045630;28;20117;-80
2021/08/07 04:58:37;;;;;;;3.15;0.80;;;;;;;27.77;35.98;95761.06;5045422;28;20043;-80
2021/08/07 05:01:02;;;;;;;1.60;0.90;;;;;;;27.78;35.91;95766.22;5068456;28;20074;-79
2021/08/07 05:03:28;;;;;;;2.42;0.93;;;;;;;27.77;36.11;95761.06;5066469;28;20028;-81
2021/08/07 05:05:53;;;;;;;1.00;0.90;;;;;;;27.78;35.99;95757.47;5048779;28;20518;-81
2021/08/07 05:08:18;;;;;;;2.17;0.90;;;;;;;27.76;35.95;95754.94;5064549;28;20025;-79
2021/08/07 05:10:44;;;;;;;3.50;1.23;;;;;;;27.76;35.94;95733.03;5065268;28;20632;-84
2021/08/07 05:13:09;;;;;;;2.42;1.10;;;;;;;27.74;35.88;95725.28;5049209;28;20024;-80
2021/08/07 05:15:35;;;;;;;2.47;0.93;;;;;;;27.76;35.95;95727.75;5043450;28;20024;-81
2021/08/07 05:18:03;;;;;;;1.58;0.90;;;;;;;27.76;36.03;95727.75;5068382;28;20028;-80
2021/08/07 05:20:28;;;;;;;1.50;1.10;;;;;;;27.76;35.85;95704.06;5066667;28;20020;-81
2021/08/07 05:22:54;;;;;;;1.70;0.95;;;;;;;27.75;35.85;95715.56;5039613;28;20029;-79
2021/08/07 05:25:21;;;;;;;1.35;0.88;;;;;;;27.74;36.07;95716.53;5041287;28;20431;-78
2021/08/07 05:27:53;;;;;;;6.30;1.10;;;;;;;27.75;35.95;95723.47;5049405;28;20056;-81
2021/08/07 05:30:18;;;;;;;3.22;0.95;;;;;;;27.76;35.96;95722.50;5042764;28;20028;-78
2021/08/07 05:32:44;;;;;;;1.30;0.85;;;;;;;27.77;35.99;95703.13;5032024;28;20081;-81
2021/08/07 05:35:11;;;;;;;3.70;1.05;;;;;;;27.75;36.05;95705.88;5066876;28;20077;-82
2021/08/07 05:37:39;;;;;;;2.38;1.00;;;;;;;27.76;36.00;95717.25;5049200;28;20031;-78
2021/08/07 05:40:07;;;;;;;0.98;0.85;;;;;;;27.76;36.06;95725.13;5045854;28;20060;-79
2021/08/07 05:42:32;;;;;;;2.30;0.80;;;;;;;27.70;35.96;95717.72;5062840;28;20412;-82
2021/08/07 05:44:58;;;;;;;1.83;0.93;;;;;;;27.78;36.07;95737.25;5048664;28;20040;-78
2021/08/07 05:47:23;;;;;;;1.48;1.00;;;;;;;27.77;36.13;95746.06;5067027;28;20028;-81
2021/08/07 05:49:52;;;;;;;1.65;0.85;;;;;;;27.80;36.07;95746.81;5039911;28;20033;-82
2021/08/07 05:52:19;;;;;;;3.67;0.90;;;;;;;27.76;36.21;95741.78;5079858;28;20025;-77
2021/08/07 05:54:45;;;;;;;4.30;0.95;;;;;;;27.79;36.26;95735.44;5014180;23;20052;-59
2021/08/07 05:57:10;;;;;;;5.15;0.95;;;;;;;27.80;36.33;95734.47;5025194;28;20303;-60
2021/08/07 05:59:35;;;;;;;3.00;1.00;;;;;;;27.81;36.30;95744.06;5024114;28;20036;-59
2021/08/07 06:02:02;;;;;;;1.55;0.85;;;;;;;27.81;36.38;95741.44;5043017;28;20499;-59
2021/08/07 06:04:28;;;;;;;4.85;1.10;;;;;;;27.81;36.29;95736.16;5047131;28;20036;-59
2021/08/07 06:06:53;;;;;;;1.95;0.80;;;;;;;27.81;36.22;95741.44;5054901;28;20028;-59
2021/08/07 06:09:18;;;;;;;3.10;0.88;;;;;;;27.82;36.53;95740.47;5055242;28;20551;-59
2021/08/07 06:11:44;;;;;;;2.70;0.90;;;;;;;27.81;36.41;95741.44;5052131;28;20028;-58
2021/08/07 06:14:09;;;;;;;1.70;1.00;;;;;;;27.81;36.50;95733.53;5052138;28;20044;-59
2021/08/07 06:16:34;;;;;;;2.88;1.10;;;;;;;27.81;36.47;95728.28;5053122;28;20040;-60
2021/08/07 06:19:00;;;;;;;2.60;0.90;;;;;;;27.82;36.43;95726.47;5058813;28;20031;-58
2021/08/07 06:21:25;;;;;;;2.58;1.08;;;;;;;27.82;36.25;95716.78;5033002;28;20135;-57
2021/08/07 06:23:51;;;;;;;1.98;0.70;;;;;;;27.84;36.46;95706.94;5050082;28;20039;-60
2021/08/07 06:26:16;;;;;;;4.25;1.10;;;;;;;27.84;36.31;95696.41;5050962;28;20605;-58
2021/08/07 06:28:42;;;;;;;2.38;0.82;;;;;;;27.83;36.38;95705.28;5020603;28;20562;-60
2021/08/07 06:31:09;;;;;;;1.85;0.80;;;;;;;27.83;36.48;95709.69;5032921;28;20036;-59
2021/08/07 06:33:34;;;;;;;2.35;1.08;;;;;;;27.84;36.33;95719.28;5034931;28;20395;-60
2021/08/07 06:36:03;;;;;;;1.63;0.82;;;;;;;27.84;36.65;95717.47;5045480;28;20032;-59
2021/08/07 06:38:28;;;;;;;1.85;0.80;;;;;;;27.85;36.31;95700.75;5063916;28;20609;-61
2021/08/07 06:40:53;;;;;;;1.60;0.80;;;;;;;27.85;36.22;95703.38;5050931;28;20043;-60
2021/08/07 06:43:19;;;;;;;2.85;1.10;;;;;;;27.86;36.45;95702.41;5065244;28;20036;-60
2021/08/07 06:45:45;;;;;;;16.60;2.50;;;;;;;27.86;36.53;95696.31;5058763;28;20460;-61
2021/08/07 06:48:10;;;;;;;11.13;1.92;;;;;;;27.86;36.38;95691.88;5051691;28;20044;-60
2021/08/07 06:50:36;;;;;;;12.38;3.20;;;;;;;27.88;36.17;95683.88;5028700;28;20733;-60
2021/08/07 06:53:01;;;;;;;11.55;3.58;;;;;;;27.88;36.43;95684.69;5048585;28;20309;-60
2021/08/07 06:55:27;;;;;;;9.45;3.10;;;;;;;27.89;36.22;95685.53;5050195;28;20032;-58
2021/08/07 06:57:52;;;;;;;13.57;2.30;;;;;;;27.89;36.04;95696.06;5033990;28;20258;-60
2021/08/07 07:00:17;;;;;;;4.93;2.10;;;;;;;27.89;35.98;95707.41;5051362;28;20032;-60
2021/08/07 07:02:43;;;;;;;5.32;2.20;;;;;;;27.89;35.99;95712.69;5034173;28;20527;-61
2021/08/07 07:05:09;;;;;;;4.93;2.08;;;;;;;27.90;35.85;95708.25;5017529;28;20064;-61
2021/08/07 07:07:37;;;;;;;7.13;2.60;;;;;;;27.90;35.94;95713.53;5020257;28;20026;-60
2021/08/07 07:10:05;;;;;;;7.45;2.80;;;;;;;27.90;36.18;95724.91;5011705;28;20337;-59
2021/08/07 07:12:30;;;;;;;6.63;2.58;;;;;;;27.92;35.81;95728.25;5026666;28;20044;-60
2021/08/07 07:14:56;;;;;;;5.70;2.35;;;;;;;27.92;36.01;95722.97;5011485;28;20032;-60
2021/08/07 07:17:24;;;;;;;4.80;2.55;;;;;;;27.94;35.88;95729.91;5028194;28;20094;-61
2021/08/07 07:19:50;;;;;;;7.63;2.00;;;;;;;27.92;35.81;95716.91;5031569;28;20396;-60
2021/08/07 07:22:15;;;;;;;8.88;2.40;;;;;;;27.92;35.51;95719.53;5030054;28;20033;-60
2021/08/07 07:24:40;;;;;;;5.65;2.17;;;;;;;27.93;35.53;95723.81;5035402;28;20033;-59
2021/08/07 07:27:06;;;;;;;5.57;2.38;;;;;;;27.92;35.74;95720.34;5029662;28;20043;-59
2021/08/07 07:29:31;;;;;;;7.85;2.03;;;;;;;27.92;35.70;95709.81;5010122;28;20029;-59
2021/08/07 07:31:57;;;;;;;6.72;2.17;;;;;;;27.92;35.69;95709.81;5028986;28;20029;-60
2021/08/07 07:34:22;;;;;;;5.93;2.17;;;;;;;27.92;35.66;95711.63;5027546;28;20029;-59
2021/08/07 07:36:47;;;;;;;5.13;2.22;;;;;;;27.92;35.54;95715.06;5025637;28;20032;-58
2021/08/07 07:39:13;;;;;;;6.38;2.25;;;;;;;27.92;35.59;95711.63;5026135;28;20036;-61
2021/08/07 07:41:38;;;;;;;7.00;2.42;;;;;;;27.92;35.58;95730.06;5026847;28;20020;-59
2021/08/07 07:44:04;;;;;;;4.30;1.92;;;;;;;27.91;35.62;95716.03;5028433;28;20029;-59
2021/08/07 07:46:29;;;;;;;5.22;1.90;;;;;;;27.91;35.33;95713.41;5028140;28;20511;-61
2021/08/07 07:48:55;;;;;;;4.50;1.73;;;;;;;27.91;35.38;95721.31;5009386;28;20470;-58
2021/08/07 07:51:20;;;;;;;5.35;1.85;;;;;;;27.91;35.56;95731.84;5027622;28;20032;-59
2021/08/07 07:53:45;;;;;;;6.13;2.05;;;;;;;27.90;35.48;95722.28;5026658;28;20037;-60
2021/08/07 07:56:11;;;;;;;6.13;1.75;;;;;;;27.91;35.31;95709.94;5011308;28;20026;-58
2021/08/07 07:58:36;;;;;;;6.32;2.03;;;;;;;27.90;35.39;95690.69;5027231;28;21583;-61
2021/08/07 08:01:02;;;;;;;3.15;1.85;;;;;;;27.91;35.45;95684.44;5028640;28;20036;-59
2021/08/07 08:03:27;;;;;;;5.93;1.65;;;;;;;27.92;35.52;95685.31;5027627;28;20575;-59
2021/08/07 08:05:53;;;;;;;2.78;1.60;;;;;;;27.92;35.21;95678.22;5025088;28;20508;-58
2021/08/07 08:08:18;;;;;;;3.83;2.03;;;;;;;27.92;35.25;95664.22;5027202;28;20689;-59
2021/08/07 08:10:43;;;;;;;4.85;1.88;;;;;;;27.92;35.23;95662.41;5027393;28;20025;-58
2021/08/07 08:13:09;;;;;;;5.18;2.03;;;;;;;27.92;34.98;95653.69;5026578;28;20044;-59
2021/08/07 08:15:37;;;;;;;4.32;1.95;;;;;;;27.94;35.08;95661.44;5008672;28;20420;-59
2021/08/07 08:18:04;;;;;;;5.25;1.80;;;;;;;27.94;34.96;95666.72;5006471;28;20112;-58
2021/08/07 08:20:29;;;;;;;3.50;1.88;;;;;;;27.94;35.06;95672.84;5027045;28;20314;-60
2021/08/07 08:22:55;;;;;;;5.05;1.88;;;;;;;27.94;35.04;95666.72;5027653;28;20033;-59
2021/08/07 08:25:20;;;;;;;5.95;1.80;;;;;;;27.92;35.08;95659.78;5008941;28;20033;-60
2021/08/07 08:27:45;;;;;;;3.78;1.65;;;;;;;27.92;35.08;95651.06;5030259;28;20447;-58
2021/08/07 08:30:11;;;;;;;3.90;1.70;;;;;;;27.92;34.96;95651.88;5031828;28;20037;-59
2021/08/07 08:32:36;;;;;;;6.32;1.65;;;;;;;27.91;34.40;95642.31;5034210;28;20422;-59
2021/08/07 08:35:02;;;;;;;8.70;1.80;;;;;;;27.90;33.86;95648.56;5031123;28;20036;-58
2021/08/07 08:37:28;;;;;;;5.70;1.55;;;;;;;27.87;33.91;95640.91;5031053;28;20017;-60
2021/08/07 08:39:53;;;;;;;3.80;1.80;;;;;;;27.84;33.69;95656.94;5030030;28;20527;-60
2021/08/07 08:42:20;;;;;;;8.95;2.30;;;;;;;27.81;33.67;95651.94;5031008;28;20028;-58
2021/08/07 08:44:46;;;;;;;7.05;1.80;;;;;;;27.78;33.68;95655.66;5031400;28;20024;-58
2021/08/07 08:47:12;;;;;;;6.85;1.58;;;;;;;27.75;33.44;95652.41;5030145;28;20055;-59
2021/08/07 08:49:37;;;;;;;4.38;1.55;;;;;;;27.69;33.49;95645.00;4999487;28;20028;-60
2021/08/07 08:52:03;;;;;;;3.83;1.25;;;;;;;27.65;33.49;95647.88;4998809;28;20029;-58
2021/08/07 08:54:28;;;;;;;2.40;1.35;;;;;;;27.61;33.16;95651.69;5027165;28;20049;-60
2021/08/07 08:56:54;;;;;;;5.93;1.92;;;;;;;27.57;33.26;95650.22;5028765;28;20032;-58
2021/08/07 08:59:20;;;;;;;4.82;1.20;;;;;;;27.53;33.25;95654.06;5026867;28;20035;-59
2021/08/07 09:01:45;;;;;;;3.28;1.40;;;;;;;27.50;33.57;95644.59;5013990;28;20671;-59
2021/08/07 09:04:11;;;;;;;4.35;1.80;;;;;;;27.47;33.90;95660.66;4993477;28;20192;-58
2021/08/07 09:06:36;;;;;;;4.75;1.80;;;;;;;27.44;33.80;95666.16;5007711;28;20040;-58
2021/08/07 09:09:08;;;;;;;3.97;1.50;;;;;;;27.43;33.82;95658.38;5026302;28;20033;-59
2021/08/07 09:11:33;;;;;;;;;;;;;;;27.40;33.88;95667.34;5018850;28;20180;-61
2021/08/07 09:14:27;;;;;;;3.65;1.70;;;;;;;27.39;34.15;95657.78;5032025;28;20331;-61
2021/08/07 09:17:02;;;;;;;3.15;1.58;;;;;;;27.42;34.02;95665.41;5015917;28;20070;-62
2021/08/07 09:19:27;;;;;;;3.72;1.52;;;;;;;27.49;33.84;95657.88;5032336;28;20031;-61
2021/08/07 09:22:15;;;;;;;5.78;1.60;;;;;;;27.57;33.82;95659.94;5033604;28;20041;-60
2021/08/07 09:25:05;;;;;;;6.47;1.90;;;;;;;27.65;33.52;95658.41;5030986;28;20059;-61
2021/08/07 09:27:50;;;;;;;4.68;1.88;;;;;;;27.78;33.24;95652.16;5020866;28;20037;-62
2021/08/07 09:30:18;;;;;;;3.38;1.67;;;;;;;27.90;33.13;95655.59;5029498;28;20041;-60
2021/08/07 09:32:50;;;;;;;5.05;1.55;;;;;;;28.02;32.71;95659.03;5030636;28;20587;-61
2021/08/07 09:35:18;;;;;;;3.28;1.45;;;;;;;28.13;32.79;95660.81;5039142;28;20037;-63
2021/08/07 09:37:43;;;;;;;3.08;1.63;;;;;;;28.24;32.75;95673.13;5035104;28;20899;-65
2021/08/07 09:40:10;;;;;;;4.63;1.70;;;;;;;28.35;32.67;95686.31;5033039;28;20133;-62
2021/08/07 09:42:54;;;;;;;3.13;1.08;;;;;;;28.47;33.09;95691.53;5016775;28;20059;-63
2021/08/07 09:45:26;;;;;;;5.97;1.20;;;;;;;28.56;33.08;95703.94;5016212;28;20037;-62
2021/08/07 09:47:59;;;;;;;4.13;1.30;;;;;;;28.68;32.91;95712.66;5017148;28;20333;-60
2021/08/07 09:50:26;;;;;;;6.25;1.92;;;;;;;28.78;32.73;95724.13;5023176;28;20056;-62
2021/08/07 09:52:51;;;;;;;7.90;1.75;;;;;;;28.87;32.64;95734.88;4997797;28;20056;-61
2021/08/07 09:55:16;;;;;;;4.32;1.60;;;;;;;28.95;32.70;95741.19;4994837;28;20164;-61
2021/08/07 09:57:42;;;;;;;2.58;1.40;;;;;;;29.04;32.80;95749.31;5028605;28;20033;-61
2021/08/07 10:00:08;;;;;;;3.08;1.20;;;;;;;29.12;32.60;95741.59;5008527;28;20138;-60
2021/08/07 10:02:36;;;;;;;5.15;1.67;;;;;;;29.18;32.64;95714.69;5033671;28;20035;-62
2021/08/07 10:05:05;;;;;;;3.13;1.42;;;;;;;29.25;32.67;95708.91;5050071;28;20480;-61
2021/08/07 10:07:30;;;;;;;2.33;1.30;;;;;;;29.30;32.69;95686.44;5048595;28;20082;-62
2021/08/07 10:09:56;;;;;;;3.33;1.30;;;;;;;29.36;32.67;95685.06;5030167;28;20028;-60
2021/08/07 10:12:22;;;;;;;4.18;1.58;;;;;;;29.43;32.79;95680.94;5050273;28;20033;-62
2021/08/07 10:14:47;;;;;;;2.90;1.35;;;;;;;29.48;32.59;95683.19;5015886;28;20519;-61
2021/08/07 10:17:15;;;;;;;3.10;1.30;;;;;;;29.53;32.35;95685.47;5017434;28;20044;-61
2021/08/07 10:19:40;;;;;;;2.53;1.42;;;;;;;29.57;32.53;95685.09;5009665;28;20017;-59
2021/08/07 10:22:07;;;;;;;3.33;1.50;;;;;;;29.62;32.60;95671.47;5013295;28;20122;-61
2021/08/07 10:24:34;;;;;;;2.13;1.23;;;;;;;29.63;32.78;95665.22;5010537;28;20467;-58
2021/08/07 10:26:59;;;;;;;2.55;1.30;;;;;;;29.67;32.62;95660.53;4996399;28;20036;-61
2021/08/07 10:29:35;;;;;;;2.10;1.10;;;;;;;29.70;33.02;95660.22;5011696;28;20447;-61
2021/08/07 10:32:04;;;;;;;2.75;1.20;;;;;;;29.73;32.62;95663.47;4999409;28;20060;-59
2021/08/07 10:34:31;;;;;;;3.05;1.55;;;;;;;29.76;32.83;95674.72;5027509;28;20121;-60
2021/08/07 10:36:57;;;;;;;3.13;1.27;;;;;;;29.78;32.71;95672.78;5029770;28;20728;-60
2021/08/07 10:39:22;;;;;;;3.22;1.65;;;;;;;29.79;32.63;95674.44;5028229;28;20037;-60
2021/08/07 10:41:47;;;;;;;3.13;1.30;;;;;;;29.81;32.69;95672.50;5028819;28;20032;-61
2021/08/07 10:44:13;;;;;;;7.03;1.25;;;;;;;29.83;32.78;95681.94;5011417;28;20040;-62
2021/08/07 10:46:38;;;;;;;4.38;1.75;;;;;;;29.85;32.74;95684.47;4998046;28;20455;-61
2021/08/07 10:49:05;;;;;;;3.05;1.17;;;;;;;29.83;32.67;95681.13;5011675;28;20446;-58
2021/08/07 10:51:32;;;;;;;3.30;1.27;;;;;;;29.82;32.64;95680.28;5025486;28;20041;-60
2021/08/07 10:54:08;;;;;;;3.42;1.42;;;;;;;29.80;32.99;95668.19;5035553;28;20663;-60
2021/08/07 10:56:51;;;;;;;4.38;1.77;;;;;;;29.77;32.79;95665.81;5031707;28;20143;-60
2021/08/07 10:59:19;;;;;;;5.53;1.63;;;;;;;29.72;33.10;95661.75;5014086;28;20078;-59
2021/08/07 11:01:45;;;;;;;2.20;1.38;;;;;;;29.67;33.00;95656.06;5029773;28;20049;-59
2021/08/07 11:04:23;;;;;;;2.72;1.33;;;;;;;29.62;33.12;95658.28;5010746;28;20024;-59
2021/08/07 11:06:50;;;;;;;3.72;1.65;;;;;;;29.56;33.22;95659.63;5033062;28;20095;-59
2021/08/07 11:09:20;;;;;;;3.38;1.50;;;;;;;29.52;33.36;95675.88;5011786;28;20400;-59
2021/08/07 11:11:46;;;;;;;3.10;1.17;;;;;;;29.45;33.52;95675.53;5012926;28;20051;-60
2021/08/07 11:14:21;;;;;;;2.65;1.23;;;;;;;29.39;33.59;95684.81;5029600;28;20029;-58
2021/08/07 11:17:05;;;;;;;3.03;1.52;;;;;;;29.35;33.78;95688.69;5029023;28;20099;-60
2021/08/07 11:19:49;;;;;;;2.22;1.27;;;;;;;29.28;33.82;95692.81;5029542;28;20741;-58
2021/08/07 11:22:19;;;;;;;1.85;1.10;;;;;;;29.23;33.81;95697.63;5007294;28;20025;-57
2021/08/07 11:24:55;;;;;;;3.97;1.30;;;;;;;29.16;34.15;95706.09;5031863;28;20036;-59
2021/08/07 11:27:21;;;;;;;6.15;1.38;;;;;;;29.13;34.10;95705.50;5008491;28;20436;-58
2021/08/07 11:30:14;;;;;;;4.05;1.60;;;;;;;29.06;34.51;95705.19;5030309;28;20040;-60
2021/08/07 11:32:40;;;;;;;4.30;1.58;;;;;;;29.00;34.80;95706.53;5026886;28;20024;-61
2021/08/07 11:35:06;;;;;;;5.53;1.50;;;;;;;28.97;34.72;95700.66;4993245;28;20396;-59